sensor_id;sensor_type;location;lat;lon;timestamp;pressure;altitude;pressure_sealevel;temperature;humidity
39954;BME280;25631;51.516;-0.470;2022-08-21T00:01:21;101393.57;;;16.88;39.13
39954;BME280;25631;51.516;-0.470;2022-08-21T00:04:03;101390.03;;;16.80;39.16
39954;BME280;25631;51.516;-0.470;2022-08-21T00:06:40;101391.38;;;17.11;39.07
39954;BME280;25631;51.516;-0.470;2022-08-21T00:09:17;101391.37;;;17.02;39.05
39954;BME280;25631;51.516;-0.470;2022-08-21T00:11:53;101395.60;;;16.90;39.13
39954;BME280;25631;51.516;-0.470;2022-08-21T00:14:30;101398.20;;;17.06;39.23
39954;BME280;25631;51.516;-0.470;2022-08-21T00:17:07;101399.02;;;16.78;39.31
39954;BME280;25631;51.516;-0.470;2022-08-21T00:19:43;101401.79;;;17.25;39.20
39954;BME280;25631;51.516;-0.470;2022-08-21T00:22:20;101401.02;;;16.74;39.24
39954;BME280;25631;51.516;-0.470;2022-08-21T00:24:56;101400.64;;;16.80;39.09
39954;BME280;25631;51.516;-0.470;2022-08-21T00:27:33;101398.73;;;17.07;39.14
39954;BME280;25631;51.516;-0.470;2022-08-21T00:30:11;101399.52;;;17.06;39.25
39954;BME280;25631;51.516;-0.470;2022-08-21T00:32:48;101398.17;;;16.64;39.35
39954;BME280;25631;51.516;-0.470;2022-08-21T00:35:26;101394.79;;;16.82;39.50
39954;BME280;25631;51.516;-0.470;2022-08-21T00:38:06;101392.35;;;16.46;39.56
39954;BME280;25631;51.516;-0.470;2022-08-21T00:40:46;101391.09;;;16.79;39.64
39954;BME280;25631;51.516;-0.470;2022-08-21T00:43:28;101386.74;;;16.42;39.93
39954;BME280;25631;51.516;-0.470;2022-08-21T00:46:06;101383.13;;;16.61;40.05
39954;BME280;25631;51.516;-0.470;2022-08-21T00:48:42;101375.88;;;16.62;40.37
39954;BME280;25631;51.516;-0.470;2022-08-21T00:51:22;101368.96;;;16.47;40.55
39954;BME280;25631;51.516;-0.470;2022-08-21T00:54:01;101362.53;;;16.27;40.64
39954;BME280;25631;51.516;-0.470;2022-08-21T00:56:38;101360.01;;;15.98;40.75
39954;BME280;25631;51.516;-0.470;2022-08-21T00:59:15;101359.56;;;16.29;40.83
39954;BME280;25631;51.516;-0.470;2022-08-21T01:01:53;101361.50;;;16.39;40.87
39954;BME280;25631;51.516;-0.470;2022-08-21T01:04:29;101362.09;;;16.27;40.72
39954;BME280;25631;51.516;-0.470;2022-08-21T01:07:06;101360.61;;;16.39;40.84
39954;BME280;25631;51.516;-0.470;2022-08-21T01:09:44;101366.08;;;16.47;40.71
39954;BME280;25631;51.516;-0.470;2022-08-21T01:12:22;101365.55;;;16.33;40.93
39954;BME280;25631;51.516;-0.470;2022-08-21T01:15:00;101371.44;;;15.97;40.96
39954;BME280;25631;51.516;-0.470;2022-08-21T01:17:37;101373.42;;;16.08;41.09
39954;BME280;25631;51.516;-0.470;2022-08-21T01:20:13;101372.32;;;16.12;41.20
39954;BME280;25631;51.516;-0.470;2022-08-21T01:22:50;101368.04;;;16.16;41.09
39954;BME280;25631;51.516;-0.470;2022-08-21T01:25:26;101370.57;;;16.18;41.09
39954;BME280;25631;51.516;-0.470;2022-08-21T01:28:09;101371.25;;;15.88;41.48
39954;BME280;25631;51.516;-0.470;2022-08-21T01:30:49;101378.62;;;16.19;41.16
39954;BME280;25631;51.516;-0.470;2022-08-21T01:33:26;101383.34;;;16.04;41.31
39954;BME280;25631;51.516;-0.470;2022-08-21T01:36:03;101385.02;;;16.23;41.16
39954;BME280;25631;51.516;-0.470;2022-08-21T01:38:40;101388.53;;;16.23;41.19
39954;BME280;25631;51.516;-0.470;2022-08-21T01:41:16;101389.75;;;16.07;41.33
39954;BME280;25631;51.516;-0.470;2022-08-21T01:43:53;101389.26;;;16.15;41.31
39954;BME280;25631;51.516;-0.470;2022-08-21T01:46:29;101393.25;;;16.09;41.40
39954;BME280;25631;51.516;-0.470;2022-08-21T01:49:06;101391.21;;;15.96;41.58
39954;BME280;25631;51.516;-0.470;2022-08-21T01:51:43;101393.39;;;16.03;41.46
39954;BME280;25631;51.516;-0.470;2022-08-21T01:54:20;101390.87;;;15.89;41.38
39954;BME280;25631;51.516;-0.470;2022-08-21T01:56:58;101390.15;;;16.00;41.51
39954;BME280;25631;51.516;-0.470;2022-08-21T01:59:35;101386.33;;;15.83;41.55
39954;BME280;25631;51.516;-0.470;2022-08-21T02:02:12;101385.06;;;16.04;41.45
39954;BME280;25631;51.516;-0.470;2022-08-21T02:04:48;101382.81;;;16.09;41.41
39954;BME280;25631;51.516;-0.470;2022-08-21T02:07:24;101380.11;;;16.12;41.36
39954;BME280;25631;51.516;-0.470;2022-08-21T02:10:01;101380.83;;;16.21;41.31
39954;BME280;25631;51.516;-0.470;2022-08-21T02:12:37;101386.16;;;16.11;41.42
39954;BME280;25631;51.516;-0.470;2022-08-21T02:15:14;101383.18;;;15.81;41.64
39954;BME280;25631;51.516;-0.470;2022-08-21T02:17:53;101377.11;;;16.17;41.57
39954;BME280;25631;51.516;-0.470;2022-08-21T02:20:32;101369.24;;;16.03;41.49
39954;BME280;25631;51.516;-0.470;2022-08-21T02:23:11;101372.10;;;15.67;41.53
39954;BME280;25631;51.516;-0.470;2022-08-21T02:25:47;101372.64;;;15.87;41.71
39954;BME280;25631;51.516;-0.470;2022-08-21T02:28:24;101373.67;;;16.00;41.69
39954;BME280;25631;51.516;-0.470;2022-08-21T02:31:02;101371.01;;;16.01;41.69
39954;BME280;25631;51.516;-0.470;2022-08-21T02:33:39;101365.90;;;15.89;41.77
39954;BME280;25631;51.516;-0.470;2022-08-21T02:36:15;101369.07;;;15.97;41.68
39954;BME280;25631;51.516;-0.470;2022-08-21T02:38:52;101372.78;;;15.92;41.61
39954;BME280;25631;51.516;-0.470;2022-08-21T02:41:29;101372.00;;;15.93;41.62
39954;BME280;25631;51.516;-0.470;2022-08-21T02:44:05;101371.21;;;15.83;41.72
39954;BME280;25631;51.516;-0.470;2022-08-21T02:46:41;101374.87;;;15.85;41.84
39954;BME280;25631;51.516;-0.470;2022-08-21T02:49:18;101372.52;;;15.63;42.16
39954;BME280;25631;51.516;-0.470;2022-08-21T02:51:54;101373.52;;;15.48;42.16
39954;BME280;25631;51.516;-0.470;2022-08-21T02:54:31;101374.15;;;15.93;42.16
39954;BME280;25631;51.516;-0.470;2022-08-21T02:57:07;101371.49;;;15.79;42.22
39954;BME280;25631;51.516;-0.470;2022-08-21T02:59:44;101366.07;;;15.65;42.27
39954;BME280;25631;51.516;-0.470;2022-08-21T03:02:20;101364.35;;;15.69;42.22
39954;BME280;25631;51.516;-0.470;2022-08-21T03:04:57;101364.04;;;15.94;42.19
39954;BME280;25631;51.516;-0.470;2022-08-21T03:07:33;101361.03;;;15.51;42.19
39954;BME280;25631;51.516;-0.470;2022-08-21T03:10:10;101357.32;;;15.64;42.14
39954;BME280;25631;51.516;-0.470;2022-08-21T03:12:48;101355.27;;;15.58;42.07
39954;BME280;25631;51.516;-0.470;2022-08-21T03:15:24;101357.64;;;15.64;42.12
39954;BME280;25631;51.516;-0.470;2022-08-21T03:18:01;101352.98;;;15.49;42.14
39954;BME280;25631;51.516;-0.470;2022-08-21T03:20:39;101353.56;;;15.48;42.10
39954;BME280;25631;51.516;-0.470;2022-08-21T03:23:17;101356.44;;;15.64;42.29
39954;BME280;25631;51.516;-0.470;2022-08-21T03:25:54;101353.72;;;15.43;42.24
39954;BME280;25631;51.516;-0.470;2022-08-21T03:28:30;101357.13;;;15.71;42.27
39954;BME280;25631;51.516;-0.470;2022-08-21T03:31:07;101359.04;;;15.67;42.38
39954;BME280;25631;51.516;-0.470;2022-08-21T03:33:43;101364.26;;;15.36;42.23
39954;BME280;25631;51.516;-0.470;2022-08-21T03:36:19;101360.10;;;15.53;42.17
39954;BME280;25631;51.516;-0.470;2022-08-21T03:38:56;101356.69;;;15.70;42.18
39954;BME280;25631;51.516;-0.470;2022-08-21T03:41:32;101354.07;;;15.53;42.23
39954;BME280;25631;51.516;-0.470;2022-08-21T03:44:09;101354.39;;;15.56;42.30
39954;BME280;25631;51.516;-0.470;2022-08-21T03:46:45;101357.68;;;15.42;42.33
39954;BME280;25631;51.516;-0.470;2022-08-21T03:49:22;101359.86;;;15.21;42.61
39954;BME280;25631;51.516;-0.470;2022-08-21T03:51:58;101365.08;;;15.30;42.53
39954;BME280;25631;51.516;-0.470;2022-08-21T03:54:34;101368.91;;;15.41;42.61
39954;BME280;25631;51.516;-0.470;2022-08-21T03:57:11;101370.63;;;15.19;42.47
39954;BME280;25631;51.516;-0.470;2022-08-21T03:59:48;101365.82;;;15.62;42.36
39954;BME280;25631;51.516;-0.470;2022-08-21T04:02:24;101359.55;;;15.52;42.31
39954;BME280;25631;51.516;-0.470;2022-08-21T04:05:00;101360.38;;;15.26;42.40
39954;BME280;25631;51.516;-0.470;2022-08-21T04:07:37;101363.56;;;15.34;42.62
39954;BME280;25631;51.516;-0.470;2022-08-21T04:10:13;101366.17;;;15.38;42.77
39954;BME280;25631;51.516;-0.470;2022-08-21T04:12:50;101365.60;;;15.28;42.85
39954;BME280;25631;51.516;-0.470;2022-08-21T04:15:27;101362.78;;;15.32;42.79
39954;BME280;25631;51.516;-0.470;2022-08-21T04:18:04;101361.28;;;15.16;43.00
39954;BME280;25631;51.516;-0.470;2022-08-21T04:20:42;101360.33;;;15.02;43.04
39954;BME280;25631;51.516;-0.470;2022-08-21T04:23:20;101352.70;;;15.25;42.97
39954;BME280;25631;51.516;-0.470;2022-08-21T04:25:57;101350.27;;;15.02;42.98
39954;BME280;25631;51.516;-0.470;2022-08-21T04:28:34;101351.28;;;14.84;42.91
39954;BME280;25631;51.516;-0.470;2022-08-21T04:31:10;101358.28;;;15.23;42.85
39954;BME280;25631;51.516;-0.470;2022-08-21T04:33:47;101359.32;;;15.29;42.78
39954;BME280;25631;51.516;-0.470;2022-08-21T04:36:23;101364.44;;;15.31;42.85
39954;BME280;25631;51.516;-0.470;2022-08-21T04:39:00;101367.08;;;15.11;42.97
39954;BME280;25631;51.516;-0.470;2022-08-21T04:41:36;101371.58;;;14.72;43.04
39954;BME280;25631;51.516;-0.470;2022-08-21T04:44:13;101369.47;;;14.81;43.30
39954;BME280;25631;51.516;-0.470;2022-08-21T04:46:49;101373.05;;;14.70;43.26
39954;BME280;25631;51.516;-0.470;2022-08-21T04:49:25;101367.78;;;14.89;43.28
39954;BME280;25631;51.516;-0.470;2022-08-21T04:52:02;101370.56;;;14.82;43.25
39954;BME280;25631;51.516;-0.470;2022-08-21T04:54:39;101370.65;;;14.77;43.31
39954;BME280;25631;51.516;-0.470;2022-08-21T04:57:16;101376.10;;;14.80;43.38
39954;BME280;25631;51.516;-0.470;2022-08-21T04:59:53;101372.24;;;14.86;43.31
39954;BME280;25631;51.516;-0.470;2022-08-21T05:02:30;101368.55;;;14.96;43.27
39954;BME280;25631;51.516;-0.470;2022-08-21T05:05:07;101371.70;;;14.91;43.44
39954;BME280;25631;51.516;-0.470;2022-08-21T05:07:44;101364.17;;;14.81;43.46
39954;BME280;25631;51.516;-0.470;2022-08-21T05:10:21;101367.66;;;14.92;43.45
39954;BME280;25631;51.516;-0.470;2022-08-21T05:12:58;101369.40;;;14.80;43.50
39954;BME280;25631;51.516;-0.470;2022-08-21T05:15:35;101374.78;;;14.69;43.66
39954;BME280;25631;51.516;-0.470;2022-08-21T05:18:12;101373.93;;;14.98;43.52
39954;BME280;25631;51.516;-0.470;2022-08-21T05:20:48;101377.17;;;14.79;43.64
39954;BME280;25631;51.516;-0.470;2022-08-21T05:23:25;101379.70;;;14.80;43.65
39954;BME280;25631;51.516;-0.470;2022-08-21T05:26:01;101388.74;;;14.85;43.63
39954;BME280;25631;51.516;-0.470;2022-08-21T05:28:38;101392.45;;;14.79;43.63
39954;BME280;25631;51.516;-0.470;2022-08-21T05:31:14;101398.61;;;14.82;43.74
39954;BME280;25631;51.516;-0.470;2022-08-21T05:33:51;101396.60;;;14.96;43.76
39954;BME280;25631;51.516;-0.470;2022-08-21T05:36:27;101398.86;;;14.79;43.79
39954;BME280;25631;51.516;-0.470;2022-08-21T05:39:04;101401.02;;;14.68;43.86
39954;BME280;25631;51.516;-0.470;2022-08-21T05:41:40;101409.33;;;15.02;43.67
39954;BME280;25631;51.516;-0.470;2022-08-21T05:44:17;101410.89;;;14.89;43.70
39954;BME280;25631;51.516;-0.470;2022-08-21T05:46:53;101411.67;;;15.14;43.53
39954;BME280;25631;51.516;-0.470;2022-08-21T05:49:29;101412.38;;;15.10;43.37
39954;BME280;25631;51.516;-0.470;2022-08-21T05:52:06;101418.37;;;14.93;43.49
39954;BME280;25631;51.516;-0.470;2022-08-21T05:54:42;101420.78;;;14.81;43.58
39954;BME280;25631;51.516;-0.470;2022-08-21T05:57:18;101418.90;;;15.11;43.47
39954;BME280;25631;51.516;-0.470;2022-08-21T05:59:55;101420.89;;;15.08;43.48
39954;BME280;25631;51.516;-0.470;2022-08-21T06:02:31;101418.64;;;15.11;43.51
39954;BME280;25631;51.516;-0.470;2022-08-21T06:05:08;101413.89;;;15.04;43.71
39954;BME280;25631;51.516;-0.470;2022-08-21T06:07:44;101403.23;;;15.02;43.64
39954;BME280;25631;51.516;-0.470;2022-08-21T06:10:21;101407.36;;;15.15;43.63
39954;BME280;25631;51.516;-0.470;2022-08-21T06:12:57;101411.40;;;15.07;43.52
39954;BME280;25631;51.516;-0.470;2022-08-21T06:15:33;101414.70;;;15.24;43.51
39954;BME280;25631;51.516;-0.470;2022-08-21T06:18:10;101414.62;;;15.27;43.31
39954;BME280;25631;51.516;-0.470;2022-08-21T06:20:47;101413.62;;;15.43;43.13
39954;BME280;25631;51.516;-0.470;2022-08-21T06:23:23;101410.47;;;15.28;43.08
39954;BME280;25631;51.516;-0.470;2022-08-21T06:26:00;101408.77;;;15.42;43.10
39954;BME280;25631;51.516;-0.470;2022-08-21T06:28:38;101408.08;;;15.34;43.09
39954;BME280;25631;51.516;-0.470;2022-08-21T06:31:18;101411.72;;;15.43;43.03
39954;BME280;25631;51.516;-0.470;2022-08-21T06:33:55;101407.38;;;15.38;42.88
39954;BME280;25631;51.516;-0.470;2022-08-21T06:36:32;101402.34;;;15.79;42.55
39954;BME280;25631;51.516;-0.470;2022-08-21T06:39:08;101396.26;;;16.00;42.42
39954;BME280;25631;51.516;-0.470;2022-08-21T06:41:44;101395.20;;;15.76;42.25
39954;BME280;25631;51.516;-0.470;2022-08-21T06:44:21;101396.05;;;15.75;42.08
39954;BME280;25631;51.516;-0.470;2022-08-21T06:46:57;101392.61;;;15.95;42.02
39954;BME280;25631;51.516;-0.470;2022-08-21T06:49:34;101387.05;;;15.66;41.97
39954;BME280;25631;51.516;-0.470;2022-08-21T06:52:12;101383.57;;;15.73;42.01
39954;BME280;25631;51.516;-0.470;2022-08-21T06:54:49;101384.39;;;15.54;42.04
39954;BME280;25631;51.516;-0.470;2022-08-21T06:57:25;101384.39;;;15.62;42.05
39954;BME280;25631;51.516;-0.470;2022-08-21T07:00:03;101380.25;;;15.83;41.92
39954;BME280;25631;51.516;-0.470;2022-08-21T07:02:39;101382.79;;;15.74;41.84
39954;BME280;25631;51.516;-0.470;2022-08-21T07:05:16;101387.85;;;15.91;41.80
39954;BME280;25631;51.516;-0.470;2022-08-21T07:07:53;101390.54;;;15.99;41.56
39954;BME280;25631;51.516;-0.470;2022-08-21T07:10:29;101390.30;;;15.89;41.57
39954;BME280;25631;51.516;-0.470;2022-08-21T07:13:05;101386.04;;;16.17;41.46
39954;BME280;25631;51.516;-0.470;2022-08-21T07:15:42;101388.07;;;16.26;41.50
39954;BME280;25631;51.516;-0.470;2022-08-21T07:18:18;101385.71;;;16.43;41.24
39954;BME280;25631;51.516;-0.470;2022-08-21T07:20:56;101384.98;;;16.43;41.03
39954;BME280;25631;51.516;-0.470;2022-08-21T07:23:35;101380.75;;;16.58;40.96
39954;BME280;25631;51.516;-0.470;2022-08-21T07:26:14;101379.76;;;16.45;40.82
39954;BME280;25631;51.516;-0.470;2022-08-21T07:28:51;101387.51;;;16.66;40.91
39954;BME280;25631;51.516;-0.470;2022-08-21T07:31:28;101385.54;;;16.53;40.68
39954;BME280;25631;51.516;-0.470;2022-08-21T07:34:04;101378.56;;;16.50;40.58
39954;BME280;25631;51.516;-0.470;2022-08-21T07:36:41;101377.19;;;16.31;40.59
39954;BME280;25631;51.516;-0.470;2022-08-21T07:39:17;101377.63;;;16.77;40.52
39954;BME280;25631;51.516;-0.470;2022-08-21T07:41:54;101375.58;;;17.11;40.30
39954;BME280;25631;51.516;-0.470;2022-08-21T07:44:30;101372.92;;;17.02;40.19
39954;BME280;25631;51.516;-0.470;2022-08-21T07:47:06;101375.77;;;16.96;40.08
39954;BME280;25631;51.516;-0.470;2022-08-21T07:49:43;101376.41;;;17.03;40.01
39954;BME280;25631;51.516;-0.470;2022-08-21T07:52:19;101380.71;;;16.74;39.91
39954;BME280;25631;51.516;-0.470;2022-08-21T07:54:56;101381.16;;;16.81;39.75
39954;BME280;25631;51.516;-0.470;2022-08-21T07:57:32;101381.64;;;16.91;39.85
39954;BME280;25631;51.516;-0.470;2022-08-21T08:00:13;101381.75;;;16.89;40.01
39954;BME280;25631;51.516;-0.470;2022-08-21T08:02:51;101378.57;;;16.71;40.05
39954;BME280;25631;51.516;-0.470;2022-08-21T08:05:30;101379.46;;;16.93;39.98
39954;BME280;25631;51.516;-0.470;2022-08-21T08:08:07;101374.83;;;16.53;39.79
39954;BME280;25631;51.516;-0.470;2022-08-21T08:10:44;101373.16;;;16.93;39.86
39954;BME280;25631;51.516;-0.470;2022-08-21T08:13:21;101374.67;;;16.47;39.84
39954;BME280;25631;51.516;-0.470;2022-08-21T08:15:57;101373.53;;;16.85;39.71
39954;BME280;25631;51.516;-0.470;2022-08-21T08:18:33;101371.38;;;16.79;39.81
39954;BME280;25631;51.516;-0.470;2022-08-21T08:21:11;101365.70;;;17.10;39.69
39954;BME280;25631;51.516;-0.470;2022-08-21T08:23:49;101360.94;;;16.97;39.67
39954;BME280;25631;51.516;-0.470;2022-08-21T08:26:26;101359.13;;;16.92;39.62
39954;BME280;25631;51.516;-0.470;2022-08-21T08:29:02;101355.11;;;16.95;39.57
39954;BME280;25631;51.516;-0.470;2022-08-21T08:31:39;101350.33;;;16.97;39.61
39954;BME280;25631;51.516;-0.470;2022-08-21T08:34:15;101349.05;;;16.99;39.47
39954;BME280;25631;51.516;-0.470;2022-08-21T08:36:51;101352.80;;;17.43;39.21
39954;BME280;25631;51.516;-0.470;2022-08-21T08:39:28;101358.94;;;17.52;38.75
39954;BME280;25631;51.516;-0.470;2022-08-21T08:42:08;101364.52;;;17.74;38.52
39954;BME280;25631;51.516;-0.470;2022-08-21T08:44:45;101366.93;;;17.92;38.07
39954;BME280;25631;51.516;-0.470;2022-08-21T08:47:24;101367.65;;;17.66;37.75
39954;BME280;25631;51.516;-0.470;2022-08-21T08:50:06;101370.14;;;17.59;37.54
39954;BME280;25631;51.516;-0.470;2022-08-21T08:52:48;101372.81;;;17.90;37.48
39954;BME280;25631;51.516;-0.470;2022-08-21T08:55:29;101370.47;;;17.52;37.55
39954;BME280;25631;51.516;-0.470;2022-08-21T08:58:14;101373.90;;;17.79;37.53
39954;BME280;25631;51.516;-0.470;2022-08-21T09:00:54;101376.21;;;17.92;37.13
39954;BME280;25631;51.516;-0.470;2022-08-21T09:03:30;101378.52;;;18.30;37.02
39954;BME280;25631;51.516;-0.470;2022-08-21T09:06:12;101381.21;;;18.18;36.47
39954;BME280;25631;51.516;-0.470;2022-08-21T09:08:59;101381.76;;;18.44;36.56
39954;BME280;25631;51.516;-0.470;2022-08-21T09:11:44;101381.11;;;18.73;35.97
39954;BME280;25631;51.516;-0.470;2022-08-21T09:14:32;101388.92;;;17.10;35.83
39954;BME280;25631;51.516;-0.470;2022-08-21T09:17:23;101394.55;;;18.25;35.44
39954;BME280;25631;51.516;-0.470;2022-08-21T09:20:12;101394.54;;;18.97;35.32
39954;BME280;25631;51.516;-0.470;2022-08-21T09:23:02;101396.31;;;19.26;35.15
39954;BME280;25631;51.516;-0.470;2022-08-21T09:25:48;101394.63;;;18.94;35.32
39954;BME280;25631;51.516;-0.470;2022-08-21T09:28:32;101393.75;;;19.05;35.33
39954;BME280;25631;51.516;-0.470;2022-08-21T09:31:22;101394.69;;;19.19;35.05
39954;BME280;25631;51.516;-0.470;2022-08-21T09:34:00;101398.28;;;18.82;35.11
39954;BME280;25631;51.516;-0.470;2022-08-21T09:36:39;101398.73;;;18.84;35.06
39954;BME280;25631;51.516;-0.470;2022-08-21T09:39:24;101402.53;;;18.79;34.83
39954;BME280;25631;51.516;-0.470;2022-08-21T09:42:03;101402.97;;;18.85;34.91
39954;BME280;25631;51.516;-0.470;2022-08-21T09:44:41;101403.53;;;18.91;35.13
39954;BME280;25631;51.516;-0.470;2022-08-21T09:47:19;101408.79;;;18.93;35.45
39954;BME280;25631;51.516;-0.470;2022-08-21T09:49:55;101410.95;;;18.78;35.35
39954;BME280;25631;51.516;-0.470;2022-08-21T09:52:31;101409.07;;;19.13;34.72
39954;BME280;25631;51.516;-0.470;2022-08-21T09:55:16;101407.77;;;19.09;34.52
39954;BME280;25631;51.516;-0.470;2022-08-21T09:57:53;101405.79;;;19.48;34.26
39954;BME280;25631;51.516;-0.470;2022-08-21T10:00:31;101402.10;;;19.36;33.59
39954;BME280;25631;51.516;-0.470;2022-08-21T10:03:12;101400.32;;;19.67;33.50
39954;BME280;25631;51.516;-0.470;2022-08-21T10:05:53;101398.23;;;19.55;33.65
39954;BME280;25631;51.516;-0.470;2022-08-21T10:08:30;101397.78;;;19.72;33.21
39954;BME280;25631;51.516;-0.470;2022-08-21T10:11:11;101397.62;;;19.87;33.22
39954;BME280;25631;51.516;-0.470;2022-08-21T10:13:53;101395.30;;;19.82;33.21
39954;BME280;25631;51.516;-0.470;2022-08-21T10:16:37;101392.94;;;19.89;33.12
39954;BME280;25631;51.516;-0.470;2022-08-21T10:19:22;101393.60;;;19.96;32.12
39954;BME280;25631;51.516;-0.470;2022-08-21T10:22:11;101394.10;;;20.06;32.41
39954;BME280;25631;51.516;-0.470;2022-08-21T10:25:02;101391.03;;;19.90;32.20
39954;BME280;25631;51.516;-0.470;2022-08-21T10:27:49;101390.78;;;19.58;32.11
39954;BME280;25631;51.516;-0.470;2022-08-21T10:30:38;101385.61;;;20.11;31.58
39954;BME280;25631;51.516;-0.470;2022-08-21T10:33:26;101390.52;;;20.05;31.83
39954;BME280;25631;51.516;-0.470;2022-08-21T10:36:12;101391.35;;;19.96;31.76
39954;BME280;25631;51.516;-0.470;2022-08-21T10:39:03;101389.60;;;20.11;31.91
39954;BME280;25631;51.516;-0.470;2022-08-21T10:42:01;101392.22;;;19.87;31.81
39954;BME280;25631;51.516;-0.470;2022-08-21T10:44:56;101389.78;;;20.08;31.44
39954;BME280;25631;51.516;-0.470;2022-08-21T10:47:41;101388.91;;;20.04;31.35
39954;BME280;25631;51.516;-0.470;2022-08-21T10:50:30;101387.64;;;20.17;31.16
39954;BME280;25631;51.516;-0.470;2022-08-21T10:53:28;101387.82;;;20.23;31.17
39954;BME280;25631;51.516;-0.470;2022-08-21T10:56:15;101387.87;;;20.30;31.22
39954;BME280;25631;51.516;-0.470;2022-08-21T10:59:05;101380.44;;;20.09;30.30
39954;BME280;25631;51.516;-0.470;2022-08-21T11:01:47;101388.66;;;19.90;30.67
39954;BME280;25631;51.516;-0.470;2022-08-21T11:04:28;101390.71;;;19.78;31.23
39954;BME280;25631;51.516;-0.470;2022-08-21T11:07:16;101389.42;;;19.92;31.44
39954;BME280;25631;51.516;-0.470;2022-08-21T11:09:58;101388.25;;;19.59;31.55
39954;BME280;25631;51.516;-0.470;2022-08-21T11:12:41;101395.43;;;19.35;31.60
39954;BME280;25631;51.516;-0.470;2022-08-21T11:15:29;101396.32;;;19.69;31.60
39954;BME280;25631;51.516;-0.470;2022-08-21T11:18:17;101391.97;;;19.63;31.64
39954;BME280;25631;51.516;-0.470;2022-08-21T11:21:03;101394.79;;;19.75;31.52
39954;BME280;25631;51.516;-0.470;2022-08-21T11:23:45;101396.53;;;19.86;31.07
39954;BME280;25631;51.516;-0.470;2022-08-21T11:29:21;101387.57;;;20.32;30.34
39954;BME280;25631;51.516;-0.470;2022-08-21T11:32:07;101391.02;;;20.16;30.16
39954;BME280;25631;51.516;-0.470;2022-08-21T11:34:57;101394.66;;;20.18;29.91
39954;BME280;25631;51.516;-0.470;2022-08-21T11:37:48;101391.05;;;20.40;30.05
39954;BME280;25631;51.516;-0.470;2022-08-21T11:40:46;101394.66;;;20.49;29.59
39954;BME280;25631;51.516;-0.470;2022-08-21T11:43:35;101394.53;;;20.91;29.29
39954;BME280;25631;51.516;-0.470;2022-08-21T11:46:23;101394.52;;;20.44;29.69
39954;BME280;25631;51.516;-0.470;2022-08-21T11:49:10;101392.67;;;20.71;29.85
39954;BME280;25631;51.516;-0.470;2022-08-21T11:51:54;101395.36;;;20.54;29.49
39954;BME280;25631;51.516;-0.470;2022-08-21T11:54:35;101394.32;;;20.85;29.60
39954;BME280;25631;51.516;-0.470;2022-08-21T11:57:18;101388.91;;;21.04;29.39
39954;BME280;25631;51.516;-0.470;2022-08-21T12:00:00;101390.25;;;21.04;29.75
39954;BME280;25631;51.516;-0.470;2022-08-21T12:02:39;101390.20;;;21.16;29.24
39954;BME280;25631;51.516;-0.470;2022-08-21T12:05:30;101390.54;;;21.48;28.55
39954;BME280;25631;51.516;-0.470;2022-08-21T12:08:13;101390.76;;;21.25;28.46
39954;BME280;25631;51.516;-0.470;2022-08-21T12:11:02;101392.74;;;21.19;28.73
39954;BME280;25631;51.516;-0.470;2022-08-21T12:13:51;101394.06;;;21.65;28.88
39954;BME280;25631;51.516;-0.470;2022-08-21T12:16:31;101394.52;;;21.56;28.35
39954;BME280;25631;51.516;-0.470;2022-08-21T12:19:10;101392.97;;;21.52;28.48
39954;BME280;25631;51.516;-0.470;2022-08-21T12:21:51;101388.60;;;21.87;28.11
39954;BME280;25631;51.516;-0.470;2022-08-21T12:24:35;101383.94;;;21.87;27.54
39954;BME280;25631;51.516;-0.470;2022-08-21T12:27:20;101378.00;;;21.96;27.28
39954;BME280;25631;51.516;-0.470;2022-08-21T12:30:01;101373.79;;;22.11;27.61
39954;BME280;25631;51.516;-0.470;2022-08-21T12:32:44;101372.11;;;21.73;27.52
39954;BME280;25631;51.516;-0.470;2022-08-21T12:35:25;101367.78;;;22.25;27.57
39954;BME280;25631;51.516;-0.470;2022-08-21T12:38:07;101363.89;;;22.13;26.62
39954;BME280;25631;51.516;-0.470;2022-08-21T12:40:52;101359.88;;;22.07;25.95
39954;BME280;25631;51.516;-0.470;2022-08-21T12:43:33;101360.19;;;22.05;26.46
39954;BME280;25631;51.516;-0.470;2022-08-21T12:46:15;101363.89;;;22.11;26.87
39954;BME280;25631;51.516;-0.470;2022-08-21T12:48:57;101364.12;;;22.22;27.21
39954;BME280;25631;51.516;-0.470;2022-08-21T12:51:49;101359.46;;;22.36;26.49
39954;BME280;25631;51.516;-0.470;2022-08-21T12:54:37;101357.80;;;22.04;26.87
39954;BME280;25631;51.516;-0.470;2022-08-21T12:57:21;101362.21;;;21.99;26.21
39954;BME280;25631;51.516;-0.470;2022-08-21T12:59:59;101353.97;;;21.94;25.69
39954;BME280;25631;51.516;-0.470;2022-08-21T13:02:39;101353.91;;;22.17;26.15
39954;BME280;25631;51.516;-0.470;2022-08-21T13:05:27;101365.07;;;22.24;25.99
39954;BME280;25631;51.516;-0.470;2022-08-21T13:08:06;101363.84;;;21.97;26.42
39954;BME280;25631;51.516;-0.470;2022-08-21T13:10:43;101362.53;;;21.73;26.54
39954;BME280;25631;51.516;-0.470;2022-08-21T13:13:24;101359.39;;;21.76;26.25
39954;BME280;25631;51.516;-0.470;2022-08-21T13:16:04;101349.01;;;21.87;26.67
39954;BME280;25631;51.516;-0.470;2022-08-21T13:18:53;101349.77;;;21.87;26.86
39954;BME280;25631;51.516;-0.470;2022-08-21T13:21:32;101346.81;;;22.33;27.24
39954;BME280;25631;51.516;-0.470;2022-08-21T13:24:14;101343.35;;;22.44;26.82
39954;BME280;25631;51.516;-0.470;2022-08-21T13:26:51;101343.44;;;22.27;26.55
39954;BME280;25631;51.516;-0.470;2022-08-21T13:29:30;101343.41;;;22.80;26.40
39954;BME280;25631;51.516;-0.470;2022-08-21T13:32:07;101341.73;;;23.37;26.38
39954;BME280;25631;51.516;-0.470;2022-08-21T13:34:52;101336.19;;;23.17;25.68
39954;BME280;25631;51.516;-0.470;2022-08-21T13:37:28;101343.02;;;23.26;25.30
39954;BME280;25631;51.516;-0.470;2022-08-21T13:40:09;101339.58;;;23.28;25.04
39954;BME280;25631;51.516;-0.470;2022-08-21T13:42:47;101333.97;;;23.42;25.24
39954;BME280;25631;51.516;-0.470;2022-08-21T13:45:27;101330.43;;;23.27;24.79